sensor_id;sensor_type;location;lat;lon;timestamp;P1;durP1;ratioP1;P2;durP2;ratioP2
55706;SDS011;41608;45.384;20.394;2023-03-03T00:01:26;42.08;;;27.52;;
55706;SDS011;41608;45.384;20.394;2023-03-03T00:03:53;46.67;;;29.77;;
55706;SDS011;41608;45.384;20.394;2023-03-03T00:06:19;46.42;;;30.48;;
55706;SDS011;41608;45.384;20.394;2023-03-03T00:08:45;51.40;;;29.23;;
55706;SDS011;41608;45.384;20.394;2023-03-03T00:11:11;40.38;;;29.00;;
55706;SDS011;41608;45.384;20.394;2023-03-03T00:16:12;43.67;;;28.00;;
55706;SDS011;41608;45.384;20.394;2023-03-03T00:18:40;43.30;;;29.03;;
55706;SDS011;41608;45.384;20.394;2023-03-03T00:21:14;41.63;;;25.45;;
55706;SDS011;41608;45.384;20.394;2023-03-03T00:26:17;45.08;;;26.25;;
55706;SDS011;41608;45.384;20.394;2023-03-03T00:28:46;55.17;;;27.85;;
55706;SDS011;41608;45.384;20.394;2023-03-03T00:31:14;47.47;;;28.52;;
55706;SDS011;41608;45.384;20.394;2023-03-03T00:33:46;52.28;;;32.40;;
55706;SDS011;41608;45.384;20.394;2023-03-03T00:38:40;39.53;;;26.58;;
55706;SDS011;41608;45.384;20.394;2023-03-03T00:41:28;47.88;;;27.70;;
55706;SDS011;41608;45.384;20.394;2023-03-03T00:43:53;42.75;;;26.25;;
55706;SDS011;41608;45.384;20.394;2023-03-03T00:46:22;46.80;;;28.15;;
55706;SDS011;41608;45.384;20.394;2023-03-03T00:48:49;42.10;;;26.70;;
55706;SDS011;41608;45.384;20.394;2023-03-03T00:53:51;43.97;;;29.33;;
55706;SDS011;41608;45.384;20.394;2023-03-03T00:56:17;54.05;;;30.35;;
55706;SDS011;41608;45.384;20.394;2023-03-03T00:58:43;48.13;;;29.90;;
55706;SDS011;41608;45.384;20.394;2023-03-03T01:01:15;48.30;;;26.88;;
55706;SDS011;41608;45.384;20.394;2023-03-03T01:03:41;45.05;;;28.00;;
55706;SDS011;41608;45.384;20.394;2023-03-03T01:06:07;45.15;;;27.85;;
55706;SDS011;41608;45.384;20.394;2023-03-03T01:08:33;46.08;;;29.80;;
55706;SDS011;41608;45.384;20.394;2023-03-03T01:11:03;44.35;;;27.35;;
55706;SDS011;41608;45.384;20.394;2023-03-03T01:13:31;42.33;;;26.80;;
55706;SDS011;41608;45.384;20.394;2023-03-03T01:15:58;45.45;;;29.40;;
55706;SDS011;41608;45.384;20.394;2023-03-03T01:18:27;43.55;;;29.42;;
55706;SDS011;41608;45.384;20.394;2023-03-03T01:20:53;41.13;;;29.42;;
55706;SDS011;41608;45.384;20.394;2023-03-03T01:23:19;45.17;;;27.20;;
55706;SDS011;41608;45.384;20.394;2023-03-03T01:25:45;44.03;;;26.90;;
55706;SDS011;41608;45.384;20.394;2023-03-03T01:28:11;41.05;;;27.73;;
55706;SDS011;41608;45.384;20.394;2023-03-03T01:30:37;44.30;;;27.42;;
55706;SDS011;41608;45.384;20.394;2023-03-03T01:33:03;40.33;;;25.98;;
55706;SDS011;41608;45.384;20.394;2023-03-03T01:35:29;44.85;;;24.40;;
55706;SDS011;41608;45.384;20.394;2023-03-03T01:37:56;43.63;;;27.70;;
55706;SDS011;41608;45.384;20.394;2023-03-03T01:40:24;41.88;;;25.65;;
55706;SDS011;41608;45.384;20.394;2023-03-03T01:42:51;39.38;;;25.75;;
55706;SDS011;41608;45.384;20.394;2023-03-03T01:45:30;34.25;;;26.40;;
55706;SDS011;41608;45.384;20.394;2023-03-03T01:52:56;48.45;;;29.02;;
55706;SDS011;41608;45.384;20.394;2023-03-03T01:55:24;54.70;;;30.20;;
55706;SDS011;41608;45.384;20.394;2023-03-03T01:57:55;56.42;;;32.72;;
55706;SDS011;41608;45.384;20.394;2023-03-03T02:00:23;46.13;;;30.05;;
55706;SDS011;41608;45.384;20.394;2023-03-03T02:02:49;48.20;;;30.55;;
55706;SDS011;41608;45.384;20.394;2023-03-03T02:05:16;48.50;;;30.88;;
55706;SDS011;41608;45.384;20.394;2023-03-03T02:07:42;45.75;;;28.60;;
55706;SDS011;41608;45.384;20.394;2023-03-03T02:10:13;48.03;;;28.10;;
55706;SDS011;41608;45.384;20.394;2023-03-03T02:12:40;45.53;;;28.38;;
55706;SDS011;41608;45.384;20.394;2023-03-03T02:15:14;47.70;;;30.05;;
55706;SDS011;41608;45.384;20.394;2023-03-03T02:17:41;49.75;;;32.40;;
55706;SDS011;41608;45.384;20.394;2023-03-03T02:20:11;51.58;;;31.60;;
55706;SDS011;41608;45.384;20.394;2023-03-03T02:22:41;44.38;;;26.35;;
55706;SDS011;41608;45.384;20.394;2023-03-03T02:25:10;45.25;;;26.30;;
55706;SDS011;41608;45.384;20.394;2023-03-03T02:27:38;45.40;;;25.60;;
55706;SDS011;41608;45.384;20.394;2023-03-03T02:30:09;47.58;;;29.65;;
55706;SDS011;41608;45.384;20.394;2023-03-03T02:32:36;45.90;;;28.08;;
55706;SDS011;41608;45.384;20.394;2023-03-03T02:35:19;42.85;;;27.58;;
55706;SDS011;41608;45.384;20.394;2023-03-03T02:37:48;35.85;;;24.58;;
55706;SDS011;41608;45.384;20.394;2023-03-03T02:40:14;38.58;;;26.20;;
55706;SDS011;41608;45.384;20.394;2023-03-03T02:42:40;39.60;;;23.48;;
55706;SDS011;41608;45.384;20.394;2023-03-03T02:45:08;36.85;;;24.10;;
55706;SDS011;41608;45.384;20.394;2023-03-03T02:47:34;37.58;;;24.00;;
55706;SDS011;41608;45.384;20.394;2023-03-03T02:50:00;37.63;;;23.90;;
55706;SDS011;41608;45.384;20.394;2023-03-03T02:52:26;40.25;;;24.00;;
55706;SDS011;41608;45.384;20.394;2023-03-03T02:54:52;41.40;;;23.05;;
55706;SDS011;41608;45.384;20.394;2023-03-03T02:57:18;43.70;;;22.95;;
55706;SDS011;41608;45.384;20.394;2023-03-03T02:59:44;39.15;;;23.75;;
55706;SDS011;41608;45.384;20.394;2023-03-03T03:02:10;39.58;;;23.40;;
55706;SDS011;41608;45.384;20.394;2023-03-03T03:04:36;36.00;;;23.75;;
55706;SDS011;41608;45.384;20.394;2023-03-03T03:07:02;36.90;;;23.17;;
55706;SDS011;41608;45.384;20.394;2023-03-03T03:09:28;37.45;;;24.42;;
55706;SDS011;41608;45.384;20.394;2023-03-03T03:11:55;40.05;;;23.73;;
55706;SDS011;41608;45.384;20.394;2023-03-03T03:14:21;40.88;;;22.98;;
55706;SDS011;41608;45.384;20.394;2023-03-03T03:16:47;41.20;;;26.88;;
55706;SDS011;41608;45.384;20.394;2023-03-03T03:19:14;52.97;;;28.42;;
55706;SDS011;41608;45.384;20.394;2023-03-03T03:21:40;43.63;;;28.73;;
55706;SDS011;41608;45.384;20.394;2023-03-03T03:24:06;47.63;;;29.30;;
55706;SDS011;41608;45.384;20.394;2023-03-03T03:26:32;48.28;;;28.83;;
55706;SDS011;41608;45.384;20.394;2023-03-03T03:28:58;44.63;;;29.50;;
55706;SDS011;41608;45.384;20.394;2023-03-03T03:31:24;53.58;;;33.03;;
55706;SDS011;41608;45.384;20.394;2023-03-03T03:33:50;49.33;;;31.60;;
55706;SDS011;41608;45.384;20.394;2023-03-03T03:36:16;43.35;;;27.92;;
55706;SDS011;41608;45.384;20.394;2023-03-03T03:38:43;45.17;;;27.38;;
55706;SDS011;41608;45.384;20.394;2023-03-03T03:41:09;45.67;;;27.10;;
55706;SDS011;41608;45.384;20.394;2023-03-03T03:43:35;58.25;;;38.28;;
55706;SDS011;41608;45.384;20.394;2023-03-03T03:46:02;54.53;;;32.25;;
55706;SDS011;41608;45.384;20.394;2023-03-03T03:48:28;61.78;;;40.22;;
55706;SDS011;41608;45.384;20.394;2023-03-03T03:50:54;95.80;;;58.28;;
55706;SDS011;41608;45.384;20.394;2023-03-03T03:53:20;55.72;;;36.22;;
55706;SDS011;41608;45.384;20.394;2023-03-03T03:55:46;43.25;;;26.80;;
55706;SDS011;41608;45.384;20.394;2023-03-03T03:58:13;44.47;;;25.13;;
55706;SDS011;41608;45.384;20.394;2023-03-03T04:00:40;46.15;;;27.85;;
55706;SDS011;41608;45.384;20.394;2023-03-03T04:03:06;40.53;;;25.27;;
55706;SDS011;41608;45.384;20.394;2023-03-03T04:05:32;42.38;;;25.88;;
55706;SDS011;41608;45.384;20.394;2023-03-03T04:07:58;43.88;;;30.33;;
55706;SDS011;41608;45.384;20.394;2023-03-03T04:10:24;54.88;;;30.90;;
55706;SDS011;41608;45.384;20.394;2023-03-03T04:12:53;52.90;;;29.95;;
55706;SDS011;41608;45.384;20.394;2023-03-03T04:15:19;53.53;;;30.98;;
55706;SDS011;41608;45.384;20.394;2023-03-03T04:17:45;58.85;;;33.33;;
55706;SDS011;41608;45.384;20.394;2023-03-03T04:20:14;55.38;;;30.55;;
55706;SDS011;41608;45.384;20.394;2023-03-03T04:22:41;52.03;;;32.15;;
55706;SDS011;41608;45.384;20.394;2023-03-03T04:25:07;48.20;;;28.75;;
55706;SDS011;41608;45.384;20.394;2023-03-03T04:30:28;50.70;;;31.70;;
55706;SDS011;41608;45.384;20.394;2023-03-03T04:32:54;45.45;;;27.17;;
55706;SDS011;41608;45.384;20.394;2023-03-03T04:35:20;46.67;;;29.90;;
55706;SDS011;41608;45.384;20.394;2023-03-03T04:37:46;44.40;;;26.83;;
55706;SDS011;41608;45.384;20.394;2023-03-03T04:40:15;47.03;;;27.40;;
55706;SDS011;41608;45.384;20.394;2023-03-03T04:42:42;46.60;;;28.90;;
55706;SDS011;41608;45.384;20.394;2023-03-03T04:45:08;46.65;;;28.13;;
55706;SDS011;41608;45.384;20.394;2023-03-03T04:53:46;56.33;;;33.38;;
55706;SDS011;41608;45.384;20.394;2023-03-03T04:59:16;44.03;;;26.20;;
55706;SDS011;41608;45.384;20.394;2023-03-03T05:05:04;46.95;;;28.50;;
55706;SDS011;41608;45.384;20.394;2023-03-03T05:10:34;62.80;;;33.35;;
55706;SDS011;41608;45.384;20.394;2023-03-03T05:16:03;59.85;;;35.40;;
55706;SDS011;41608;45.384;20.394;2023-03-03T05:24:24;59.80;;;32.53;;
55706;SDS011;41608;45.384;20.394;2023-03-03T05:26:50;50.95;;;28.35;;
55706;SDS011;41608;45.384;20.394;2023-03-03T05:32:02;46.83;;;28.90;;
55706;SDS011;41608;45.384;20.394;2023-03-03T05:34:28;44.83;;;27.08;;
55706;SDS011;41608;45.384;20.394;2023-03-03T05:49:44;50.25;;;27.27;;
55706;SDS011;41608;45.384;20.394;2023-03-03T05:55:14;51.85;;;28.45;;
55706;SDS011;41608;45.384;20.394;2023-03-03T06:00:43;53.97;;;29.52;;
55706;SDS011;41608;45.384;20.394;2023-03-03T06:06:13;75.30;;;35.67;;
55706;SDS011;41608;45.384;20.394;2023-03-03T06:18:09;55.60;;;34.60;;
55706;SDS011;41608;45.384;20.394;2023-03-03T06:32:49;81.85;;;43.75;;
55706;SDS011;41608;45.384;20.394;2023-03-03T06:44:29;60.03;;;33.78;;
55706;SDS011;41608;45.384;20.394;2023-03-03T06:49:58;60.42;;;34.58;;
55706;SDS011;41608;45.384;20.394;2023-03-03T06:52:25;60.33;;;34.70;;
55706;SDS011;41608;45.384;20.394;2023-03-03T06:54:56;64.95;;;34.67;;
55706;SDS011;41608;45.384;20.394;2023-03-03T07:03:33;61.53;;;37.80;;
55706;SDS011;41608;45.384;20.394;2023-03-03T07:08:49;61.22;;;37.63;;
55706;SDS011;41608;45.384;20.394;2023-03-03T07:11:17;64.65;;;36.63;;
55706;SDS011;41608;45.384;20.394;2023-03-03T07:13:48;62.17;;;34.63;;
55706;SDS011;41608;45.384;20.394;2023-03-03T07:19:34;50.83;;;30.42;;
55706;SDS011;41608;45.384;20.394;2023-03-03T07:24:43;51.80;;;31.70;;
55706;SDS011;41608;45.384;20.394;2023-03-03T07:27:11;55.25;;;31.63;;
55706;SDS011;41608;45.384;20.394;2023-03-03T07:29:38;57.40;;;32.47;;
55706;SDS011;41608;45.384;20.394;2023-03-03T07:32:49;65.68;;;32.53;;
55706;SDS011;41608;45.384;20.394;2023-03-03T07:34:57;50.10;;;30.52;;
55706;SDS011;41608;45.384;20.394;2023-03-03T07:37:30;53.58;;;30.15;;
55706;SDS011;41608;45.384;20.394;2023-03-03T07:39:59;47.67;;;31.33;;
55706;SDS011;41608;45.384;20.394;2023-03-03T07:42:26;56.45;;;30.92;;
55706;SDS011;41608;45.384;20.394;2023-03-03T07:44:59;45.42;;;30.80;;
55706;SDS011;41608;45.384;20.394;2023-03-03T07:47:29;53.15;;;28.30;;
55706;SDS011;41608;45.384;20.394;2023-03-03T07:49:56;47.10;;;30.90;;
55706;SDS011;41608;45.384;20.394;2023-03-03T07:52:24;51.00;;;29.30;;
55706;SDS011;41608;45.384;20.394;2023-03-03T07:54:58;52.83;;;28.65;;
55706;SDS011;41608;45.384;20.394;2023-03-03T07:57:26;48.70;;;28.83;;
55706;SDS011;41608;45.384;20.394;2023-03-03T08:03:02;59.72;;;28.88;;
55706;SDS011;41608;45.384;20.394;2023-03-03T08:05:37;45.50;;;27.83;;
55706;SDS011;41608;45.384;20.394;2023-03-03T08:12:59;56.42;;;30.85;;
55706;SDS011;41608;45.384;20.394;2023-03-03T08:15:30;49.05;;;30.67;;
55706;SDS011;41608;45.384;20.394;2023-03-03T08:17:56;53.85;;;29.60;;
55706;SDS011;41608;45.384;20.394;2023-03-03T08:22:54;51.22;;;30.05;;
55706;SDS011;41608;45.384;20.394;2023-03-03T08:25:20;48.47;;;28.25;;
55706;SDS011;41608;45.384;20.394;2023-03-03T08:27:46;46.15;;;28.27;;
55706;SDS011;41608;45.384;20.394;2023-03-03T08:30:13;46.63;;;29.75;;
55706;SDS011;41608;45.384;20.394;2023-03-03T08:32:39;47.03;;;29.15;;
55706;SDS011;41608;45.384;20.394;2023-03-03T08:35:05;45.50;;;26.90;;
55706;SDS011;41608;45.384;20.394;2023-03-03T08:37:31;50.70;;;32.00;;
55706;SDS011;41608;45.384;20.394;2023-03-03T08:39:57;51.08;;;29.42;;
55706;SDS011;41608;45.384;20.394;2023-03-03T08:42:28;49.75;;;28.42;;
55706;SDS011;41608;45.384;20.394;2023-03-03T08:44:54;51.22;;;30.48;;
55706;SDS011;41608;45.384;20.394;2023-03-03T08:47:20;44.92;;;29.15;;
55706;SDS011;41608;45.384;20.394;2023-03-03T08:49:46;43.10;;;26.98;;
55706;SDS011;41608;45.384;20.394;2023-03-03T08:52:12;48.05;;;26.50;;
55706;SDS011;41608;45.384;20.394;2023-03-03T08:54:38;43.83;;;27.40;;
55706;SDS011;41608;45.384;20.394;2023-03-03T08:57:04;48.60;;;28.00;;
55706;SDS011;41608;45.384;20.394;2023-03-03T08:59:30;47.75;;;27.73;;
55706;SDS011;41608;45.384;20.394;2023-03-03T09:02:01;48.60;;;27.35;;
55706;SDS011;41608;45.384;20.394;2023-03-03T09:04:28;40.47;;;25.70;;
55706;SDS011;41608;45.384;20.394;2023-03-03T09:06:54;38.63;;;25.85;;
55706;SDS011;41608;45.384;20.394;2023-03-03T09:09:20;53.45;;;26.35;;
55706;SDS011;41608;45.384;20.394;2023-03-03T09:11:49;44.83;;;27.25;;
55706;SDS011;41608;45.384;20.394;2023-03-03T09:14:16;44.22;;;28.10;;
55706;SDS011;41608;45.384;20.394;2023-03-03T09:19:15;53.45;;;30.27;;
55706;SDS011;41608;45.384;20.394;2023-03-03T09:21:43;45.67;;;25.30;;
55706;SDS011;41608;45.384;20.394;2023-03-03T09:24:14;42.80;;;26.35;;
55706;SDS011;41608;45.384;20.394;2023-03-03T09:26:46;43.30;;;25.98;;
55706;SDS011;41608;45.384;20.394;2023-03-03T09:31:41;42.00;;;28.38;;
55706;SDS011;41608;45.384;20.394;2023-03-03T09:34:21;43.45;;;27.33;;
55706;SDS011;41608;45.384;20.394;2023-03-03T09:36:47;41.95;;;25.58;;
55706;SDS011;41608;45.384;20.394;2023-03-03T09:39:18;43.00;;;27.33;;
55706;SDS011;41608;45.384;20.394;2023-03-03T09:49:34;42.85;;;27.45;;
55706;SDS011;41608;45.384;20.394;2023-03-03T09:52:16;45.15;;;26.60;;
55706;SDS011;41608;45.384;20.394;2023-03-03T09:57:16;50.70;;;27.65;;
55706;SDS011;41608;45.384;20.394;2023-03-03T10:11:00;35.22;;;23.02;;
55706;SDS011;41608;45.384;20.394;2023-03-03T10:23:55;39.47;;;25.02;;
55706;SDS011;41608;45.384;20.394;2023-03-03T10:26:34;40.92;;;23.88;;
55706;SDS011;41608;45.384;20.394;2023-03-03T10:37:23;35.60;;;23.98;;
55706;SDS011;41608;45.384;20.394;2023-03-03T11:00:26;32.92;;;22.20;;
55706;SDS011;41608;45.384;20.394;2023-03-03T11:08:16;45.15;;;24.00;;
55706;SDS011;41608;45.384;20.394;2023-03-03T11:13:26;40.45;;;24.55;;
55706;SDS011;41608;45.384;20.394;2023-03-03T11:16:03;35.50;;;23.20;;
55706;SDS011;41608;45.384;20.394;2023-03-03T11:18:44;37.45;;;24.20;;
55706;SDS011;41608;45.384;20.394;2023-03-03T11:21:15;41.78;;;23.75;;
55706;SDS011;41608;45.384;20.394;2023-03-03T11:29:00;33.80;;;22.10;;
55706;SDS011;41608;45.384;20.394;2023-03-03T11:31:45;35.38;;;22.73;;
55706;SDS011;41608;45.384;20.394;2023-03-03T11:39:12;41.35;;;21.75;;
55706;SDS011;41608;45.384;20.394;2023-03-03T11:41:49;27.27;;;18.15;;
55706;SDS011;41608;45.384;20.394;2023-03-03T11:44:30;36.47;;;22.52;;
55706;SDS011;41608;45.384;20.394;2023-03-03T11:47:21;44.45;;;25.30;;
55706;SDS011;41608;45.384;20.394;2023-03-03T11:54:58;39.70;;;23.17;;
55706;SDS011;41608;45.384;20.394;2023-03-03T12:02:42;35.38;;;21.92;;
55706;SDS011;41608;45.384;20.394;2023-03-03T12:05:12;33.25;;;19.98;;
55706;SDS011;41608;45.384;20.394;2023-03-03T12:07:55;30.58;;;20.40;;
55706;SDS011;41608;45.384;20.394;2023-03-03T12:10:31;34.05;;;20.15;;
55706;SDS011;41608;45.384;20.394;2023-03-03T12:15:36;32.30;;;21.52;;
55706;SDS011;41608;45.384;20.394;2023-03-03T12:18:09;30.08;;;19.42;;
55706;SDS011;41608;45.384;20.394;2023-03-03T12:28:48;38.63;;;20.17;;
55706;SDS011;41608;45.384;20.394;2023-03-03T12:33:50;32.92;;;19.80;;
55706;SDS011;41608;45.384;20.394;2023-03-03T12:46:52;26.92;;;17.85;;
55706;SDS011;41608;45.384;20.394;2023-03-03T12:49:20;31.83;;;20.40;;
55706;SDS011;41608;45.384;20.394;2023-03-03T12:52:02;26.13;;;18.08;;
55706;SDS011;41608;45.384;20.394;2023-03-03T13:15:35;26.90;;;18.40;;
55706;SDS011;41608;45.384;20.394;2023-03-03T13:20:48;30.10;;;17.95;;
55706;SDS011;41608;45.384;20.394;2023-03-03T13:31:34;29.58;;;18.60;;
55706;SDS011;41608;45.384;20.394;2023-03-03T13:34:04;29.73;;;20.30;;
55706;SDS011;41608;45.384;20.394;2023-03-03T13:36:34;38.00;;;19.25;;
55706;SDS011;41608;45.384;20.394;2023-03-03T13:39:11;32.28;;;19.77;;
55706;SDS011;41608;45.384;20.394;2023-03-03T13:52:07;31.48;;;21.15;;
55706;SDS011;41608;45.384;20.394;2023-03-03T13:54:56;50.97;;;23.80;;
55706;SDS011;41608;45.384;20.394;2023-03-03T14:05:32;37.80;;;21.80;;
55706;SDS011;41608;45.384;20.394;2023-03-03T14:16:45;27.50;;;17.50;;
55706;SDS011;41608;45.384;20.394;2023-03-03T14:21:58;30.80;;;17.52;;
55706;SDS011;41608;45.384;20.394;2023-03-03T14:24:27;29.33;;;18.95;;
55706;SDS011;41608;45.384;20.394;2023-03-03T14:26:54;42.72;;;24.58;;
55706;SDS011;41608;45.384;20.394;2023-03-03T14:31:54;24.50;;;17.85;;
55706;SDS011;41608;45.384;20.394;2023-03-03T14:34:36;29.88;;;18.55;;
55706;SDS011;41608;45.384;20.394;2023-03-03T14:37:41;27.10;;;18.40;;
55706;SDS011;41608;45.384;20.394;2023-03-03T14:40:14;39.15;;;22.27;;
55706;SDS011;41608;45.384;20.394;2023-03-03T14:47:45;34.58;;;18.52;;
55706;SDS011;41608;45.384;20.394;2023-03-03T14:50:27;28.38;;;18.13;;
55706;SDS011;41608;45.384;20.394;2023-03-03T14:53:03;37.38;;;18.92;;
55706;SDS011;41608;45.384;20.394;2023-03-03T14:55:35;29.10;;;19.05;;
55706;SDS011;41608;45.384;20.394;2023-03-03T14:58:01;24.95;;;16.88;;
55706;SDS011;41608;45.384;20.394;2023-03-03T15:00:29;36.00;;;19.33;;
55706;SDS011;41608;45.384;20.394;2023-03-03T15:05:51;34.03;;;20.17;;
55706;SDS011;41608;45.384;20.394;2023-03-03T15:08:30;41.95;;;21.08;;
55706;SDS011;41608;45.384;20.394;2023-03-03T15:11:10;25.95;;;17.35;;
55706;SDS011;41608;45.384;20.394;2023-03-03T15:13:36;35.22;;;21.83;;
55706;SDS011;41608;45.384;20.394;2023-03-03T15:16:19;32.13;;;19.88;;
55706;SDS011;41608;45.384;20.394;2023-03-03T15:21:41;30.08;;;19.50;;
55706;SDS011;41608;45.384;20.394;2023-03-03T15:26:48;35.97;;;20.15;;
55706;SDS011;41608;45.384;20.394;2023-03-03T15:31:49;32.92;;;20.05;;
55706;SDS011;41608;45.384;20.394;2023-03-03T15:34:22;44.88;;;24.70;;
55706;SDS011;41608;45.384;20.394;2023-03-03T15:36:52;31.45;;;18.73;;
55706;SDS011;41608;45.384;20.394;2023-03-03T15:39:37;30.65;;;19.65;;
55706;SDS011;41608;45.384;20.394;2023-03-03T15:49:38;31.70;;;21.67;;
55706;SDS011;41608;45.384;20.394;2023-03-03T15:52:20;33.88;;;20.48;;
55706;SDS011;41608;45.384;20.394;2023-03-03T15:57:31;47.63;;;26.63;;
55706;SDS011;41608;45.384;20.394;2023-03-03T16:03:04;88.18;;;61.17;;
55706;SDS011;41608;45.384;20.394;2023-03-03T16:08:08;54.03;;;39.22;;
55706;SDS011;41608;45.384;20.394;2023-03-03T16:23:27;31.85;;;20.48;;
55706;SDS011;41608;45.384;20.394;2023-03-03T16:31:36;37.58;;;24.10;;
55706;SDS011;41608;45.384;20.394;2023-03-03T16:50:14;56.53;;;29.20;;
55706;SDS011;41608;45.384;20.394;2023-03-03T16:55:34;67.57;;;29.77;;
55706;SDS011;41608;45.384;20.394;2023-03-03T16:58:04;57.70;;;27.95;;
55706;SDS011;41608;45.384;20.394;2023-03-03T17:00:43;64.72;;;32.35;;
55706;SDS011;41608;45.384;20.394;2023-03-03T17:03:26;57.25;;;34.28;;
55706;SDS011;41608;45.384;20.394;2023-03-03T17:05:59;62.72;;;31.80;;
55706;SDS011;41608;45.384;20.394;2023-03-03T17:08:51;54.63;;;30.13;;
55706;SDS011;41608;45.384;20.394;2023-03-03T17:14:27;47.15;;;27.77;;
55706;SDS011;41608;45.384;20.394;2023-03-03T17:17:00;44.63;;;29.13;;
55706;SDS011;41608;45.384;20.394;2023-03-03T17:19:33;54.88;;;33.53;;
55706;SDS011;41608;45.384;20.394;2023-03-03T17:34:48;60.03;;;34.67;;
55706;SDS011;41608;45.384;20.394;2023-03-03T18:00:53;99.70;;;58.13;;
55706;SDS011;41608;45.384;20.394;2023-03-03T18:22:42;102.80;;;56.58;;
55706;SDS011;41608;45.384;20.394;2023-03-03T18:25:13;102.28;;;57.63;;
55706;SDS011;41608;45.384;20.394;2023-03-03T18:27:44;110.95;;;57.88;;
55706;SDS011;41608;45.384;20.394;2023-03-03T18:37:56;106.32;;;58.35;;
55706;SDS011;41608;45.384;20.394;2023-03-03T18:42:51;104.10;;;60.67;;
55706;SDS011;41608;45.384;20.394;2023-03-03T18:53:14;119.18;;;65.63;;
55706;SDS011;41608;45.384;20.394;2023-03-03T19:00:44;96.80;;;54.72;;
55706;SDS011;41608;45.384;20.394;2023-03-03T19:06:08;104.82;;;53.10;;
55706;SDS011;41608;45.384;20.394;2023-03-03T19:08:52;101.95;;;54.72;;
55706;SDS011;41608;45.384;20.394;2023-03-03T19:13:49;94.55;;;53.97;;
55706;SDS011;41608;45.384;20.394;2023-03-03T19:23:56;104.30;;;57.22;;
55706;SDS011;41608;45.384;20.394;2023-03-03T19:31:32;111.10;;;58.35;;
55706;SDS011;41608;45.384;20.394;2023-03-03T19:36:35;110.03;;;59.22;;
55706;SDS011;41608;45.384;20.394;2023-03-03T19:39:19;103.07;;;57.53;;
55706;SDS011;41608;45.384;20.394;2023-03-03T19:41:52;113.45;;;57.60;;
55706;SDS011;41608;45.384;20.394;2023-03-03T19:49:50;108.75;;;58.72;;
55706;SDS011;41608;45.384;20.394;2023-03-03T20:16:41;111.82;;;59.63;;
55706;SDS011;41608;45.384;20.394;2023-03-03T20:24:28;115.50;;;66.35;;
55706;SDS011;41608;45.384;20.394;2023-03-03T20:40:30;109.35;;;59.90;;
55706;SDS011;41608;45.384;20.394;2023-03-03T20:45:48;107.03;;;58.60;;
55706;SDS011;41608;45.384;20.394;2023-03-03T20:48:24;105.40;;;59.50;;
55706;SDS011;41608;45.384;20.394;2023-03-03T20:53:38;103.97;;;55.67;;
55706;SDS011;41608;45.384;20.394;2023-03-03T21:01:22;101.38;;;56.08;;
55706;SDS011;41608;45.384;20.394;2023-03-03T21:03:52;98.13;;;56.90;;
55706;SDS011;41608;45.384;20.394;2023-03-03T21:06:19;100.88;;;54.85;;
55706;SDS011;41608;45.384;20.394;2023-03-03T21:08:54;103.78;;;56.92;;
55706;SDS011;41608;45.384;20.394;2023-03-03T21:11:22;104.40;;;56.72;;
55706;SDS011;41608;45.384;20.394;2023-03-03T21:13:49;106.60;;;58.88;;
55706;SDS011;41608;45.384;20.394;2023-03-03T21:21:28;103.15;;;55.05;;
55706;SDS011;41608;45.384;20.394;2023-03-03T21:23:54;103.55;;;58.05;;
55706;SDS011;41608;45.384;20.394;2023-03-03T21:29:05;93.93;;;52.20;;
55706;SDS011;41608;45.384;20.394;2023-03-03T21:31:50;97.00;;;57.25;;
55706;SDS011;41608;45.384;20.394;2023-03-03T21:34:30;92.97;;;54.60;;
55706;SDS011;41608;45.384;20.394;2023-03-03T21:40:09;97.43;;;57.33;;
55706;SDS011;41608;45.384;20.394;2023-03-03T21:42:39;95.32;;;54.78;;
55706;SDS011;41608;45.384;20.394;2023-03-03T21:45:09;96.88;;;54.67;;
55706;SDS011;41608;45.384;20.394;2023-03-03T21:47:36;94.38;;;54.25;;
55706;SDS011;41608;45.384;20.394;2023-03-03T21:50:02;94.22;;;57.13;;
55706;SDS011;41608;45.384;20.394;2023-03-03T21:52:28;99.13;;;54.17;;
55706;SDS011;41608;45.384;20.394;2023-03-03T21:54:54;89.80;;;53.38;;
55706;SDS011;41608;45.384;20.394;2023-03-03T21:57:20;94.95;;;56.00;;
55706;SDS011;41608;45.384;20.394;2023-03-03T21:59:46;96.00;;;52.42;;
55706;SDS011;41608;45.384;20.394;2023-03-03T22:02:12;94.82;;;54.65;;
55706;SDS011;41608;45.384;20.394;2023-03-03T22:04:41;90.72;;;52.35;;
55706;SDS011;41608;45.384;20.394;2023-03-03T22:07:07;86.22;;;50.90;;
55706;SDS011;41608;45.384;20.394;2023-03-03T22:09:33;90.22;;;50.15;;
55706;SDS011;41608;45.384;20.394;2023-03-03T22:11:59;87.63;;;51.75;;
55706;SDS011;41608;45.384;20.394;2023-03-03T22:14:25;87.57;;;50.95;;
55706;SDS011;41608;45.384;20.394;2023-03-03T22:16:51;89.22;;;50.15;;
55706;SDS011;41608;45.384;20.394;2023-03-03T22:19:18;80.63;;;50.05;;
55706;SDS011;41608;45.384;20.394;2023-03-03T22:21:46;92.47;;;53.53;;
55706;SDS011;41608;45.384;20.394;2023-03-03T22:24:13;82.28;;;49.90;;
55706;SDS011;41608;45.384;20.394;2023-03-03T22:26:39;86.22;;;51.67;;
55706;SDS011;41608;45.384;20.394;2023-03-03T22:29:05;90.03;;;50.67;;
55706;SDS011;41608;45.384;20.394;2023-03-03T22:31:31;85.10;;;47.55;;
55706;SDS011;41608;45.384;20.394;2023-03-03T22:33:57;95.50;;;52.13;;
55706;SDS011;41608;45.384;20.394;2023-03-03T22:36:23;91.50;;;50.65;;
55706;SDS011;41608;45.384;20.394;2023-03-03T22:38:50;89.38;;;54.45;;
55706;SDS011;41608;45.384;20.394;2023-03-03T22:41:16;83.80;;;51.75;;
55706;SDS011;41608;45.384;20.394;2023-03-03T22:43:42;88.68;;;54.00;;
55706;SDS011;41608;45.384;20.394;2023-03-03T22:46:09;93.13;;;53.60;;
55706;SDS011;41608;45.384;20.394;2023-03-03T22:48:35;88.57;;;50.10;;
55706;SDS011;41608;45.384;20.394;2023-03-03T22:51:01;91.50;;;53.42;;
55706;SDS011;41608;45.384;20.394;2023-03-03T22:53:29;87.88;;;51.63;;
55706;SDS011;41608;45.384;20.394;2023-03-03T22:55:58;91.10;;;55.38;;
55706;SDS011;41608;45.384;20.394;2023-03-03T22:58:24;92.82;;;58.63;;
55706;SDS011;41608;45.384;20.394;2023-03-03T23:00:51;101.30;;;55.83;;
55706;SDS011;41608;45.384;20.394;2023-03-03T23:03:20;98.15;;;57.85;;
55706;SDS011;41608;45.384;20.394;2023-03-03T23:05:47;103.63;;;59.30;;
55706;SDS011;41608;45.384;20.394;2023-03-03T23:08:13;94.03;;;55.63;;
55706;SDS011;41608;45.384;20.394;2023-03-03T23:10:40;101.45;;;62.65;;
55706;SDS011;41608;45.384;20.394;2023-03-03T23:13:08;98.45;;;56.15;;
55706;SDS011;41608;45.384;20.394;2023-03-03T23:15:34;109.72;;;58.97;;
55706;SDS011;41608;45.384;20.394;2023-03-03T23:18:00;101.63;;;57.65;;
55706;SDS011;41608;45.384;20.394;2023-03-03T23:20:29;100.47;;;55.65;;
55706;SDS011;41608;45.384;20.394;2023-03-03T23:22:56;101.18;;;55.42;;
55706;SDS011;41608;45.384;20.394;2023-03-03T23:25:22;105.45;;;54.67;;
55706;SDS011;41608;45.384;20.394;2023-03-03T23:27:48;94.90;;;51.42;;
55706;SDS011;41608;45.384;20.394;2023-03-03T23:30:18;111.00;;;56.03;;
55706;SDS011;41608;45.384;20.394;2023-03-03T23:32:45;95.35;;;54.25;;